首页
METAR-TAF:

METAR-TAF

机场 :

黑角, 刚果

纬度: 04-49S, 经度: 011-54E, 海拔: 17米

当前天气观测

该预报发布于37分钟前的04:30 UTC
风速2节,风向东转东南
温度 21°C
湿度 94%
气压 1015 hPa
能見度: 6000
少量云层高于1000英尺
多云层高于2500英尺

METAR: FCPP 220430Z 11002KT 6000 FEW010 BKN025 21/20 Q1015 BECMG 4000 BR

时间: 06:07 (05:07 UTC)

预报

该预报发布于6小时和7分钟前的23:00 UTC
预报有效从22日的 00点(UTC)到 22日的 24点(UTC)
风速3节,风向多变
能見度: 4000
少量云层高于1000英尺
轻雾
几率 30%
从 22日的 04点(UTC)到 22日的 10点(UTC)
多云层高于1000英尺
多云层高于2300英尺
成为
从 22日的 06点(UTC)到 22日的 08点(UTC)
能見度: 7000
成为
从 22日的 10点(UTC)到 22日的 12点(UTC)
风速10节,风向南转西南
成为
从 22日的 19点(UTC)到 22日的 21点(UTC)
风速4节,风向多变

TAF: FCPP 212300Z 2200/2224 VRB03KT 4000 BR FEW010 PROB30 2204/2210 BKN010 BKN023 BECMG 2206/2208 7000 NSW BECMG 2210/2212 20010KT BECMG 2219/2221 VRB04KT

超过4000个机场的气象观测和天气预报(METAR&TAF报告)。

可查询的气象台以黄色和红色小点在地图上表示。

将鼠标移到小点上方,可查看气象台名称。

然后点击查看天气观测和预报。

如需切换地图:点击带黑十字的绿色按钮放大地图;点击带横线的绿色按钮缩小地图;或者点击绿色箭头查看邻近地区的地图。


METAR-TAF: